createdAt,value
2019-04-23T00:00:19.797Z,49.90
2019-04-23T00:05:41.838Z,49.50
2019-04-23T00:08:10.832Z,50.00
2019-04-23T00:10:36.641Z,49.90
2019-04-23T00:13:10.953Z,50.20
2019-04-23T00:15:58.584Z,50.50
2019-04-23T00:18:30.725Z,50.90
2019-04-23T00:21:07.405Z,51.40
2019-04-23T00:23:44.656Z,51.90
2019-04-23T00:26:16.188Z,52.00
2019-04-23T00:28:56.376Z,52.40
2019-04-23T00:31:18.443Z,52.80
2019-04-23T00:33:49.590Z,53.00
2019-04-23T00:36:27.509Z,53.30
2019-04-23T00:38:49.937Z,53.70
2019-04-23T00:41:33.474Z,53.90
2019-04-23T00:44:15.046Z,54.00
2019-04-23T00:49:05.866Z,54.10
2019-04-23T00:51:38.243Z,54.40
2019-04-23T00:54:12.202Z,54.60
2019-04-23T00:59:12.210Z,55.00
2019-04-23T01:01:50.066Z,54.40
2019-04-23T01:04:18.699Z,54.60
2019-04-23T01:06:52.910Z,55.10
2019-04-23T01:09:24.106Z,55.20
2019-04-23T01:12:03.129Z,55.30
2019-04-23T01:14:31.524Z,55.30
2019-04-23T01:17:06.078Z,55.30
2019-04-23T01:19:49.460Z,55.10
2019-04-23T01:22:04.170Z,55.20
2019-04-23T01:25:13.499Z,55.20
2019-04-23T01:28:35.604Z,55.40
2019-04-23T01:31:09.167Z,55.20
2019-04-23T01:33:38.984Z,55.30
2019-04-23T01:36:21.440Z,55.40
2019-04-23T01:38:51.809Z,55.60
2019-04-23T01:41:14.492Z,55.70
2019-04-23T01:43:47.111Z,56.30
2019-04-23T01:46:21.635Z,56.20
2019-04-23T01:48:51.907Z,56.10
2019-04-23T01:51:27.954Z,56.50
2019-04-23T01:56:30.470Z,56.70
2019-04-23T02:01:36.717Z,56.70
2019-04-23T02:04:15.216Z,56.70
2019-04-23T02:06:38.665Z,56.70
2019-04-23T02:09:26.007Z,56.70
2019-04-23T02:11:37.431Z,56.80
2019-04-23T02:14:18.243Z,57.10
2019-04-23T02:16:45.903Z,56.70
2019-04-23T02:22:08.853Z,56.70
2019-04-23T02:24:37.479Z,56.90
2019-04-23T02:27:05.263Z,57.10
2019-04-23T02:32:13.982Z,57.50
2019-04-23T02:40:01.338Z,58.10
2019-04-23T02:42:42.795Z,58.00
2019-04-23T02:44:56.422Z,58.20
2019-04-23T02:47:36.956Z,58.50
2019-04-23T02:55:09.058Z,58.70
2019-04-23T03:00:18.578Z,59.00
2019-04-23T03:10:27.183Z,59.10
2019-04-23T03:12:59.143Z,59.00
2019-04-23T03:18:34.462Z,59.10
2019-04-23T03:21:23.481Z,59.30
2019-04-23T03:29:04.354Z,59.30
2019-04-23T03:33:04.318Z,59.30
2019-04-23T03:37:08.672Z,59.50
2019-04-23T03:38:54.337Z,59.90
2019-04-23T03:43:51.897Z,60.10
2019-04-23T03:49:09.786Z,59.70
2019-04-23T03:51:43.465Z,59.90
2019-04-23T03:54:26.375Z,60.00
2019-04-23T03:57:03.300Z,60.00
2019-04-23T03:59:27.133Z,60.30
2019-04-23T04:02:03.242Z,60.80
2019-04-23T04:12:09.366Z,60.10
2019-04-23T04:14:42.054Z,60.10
2019-04-23T04:17:09.322Z,60.60
2019-04-23T04:19:44.856Z,60.00
2019-04-23T04:22:21.699Z,59.90
2019-04-23T04:24:41.630Z,59.50
2019-04-23T04:27:22.084Z,59.10
2019-04-23T04:32:42.361Z,59.10
2019-04-23T04:35:12.717Z,59.00
2019-04-23T04:40:04.614Z,58.70
2019-04-23T04:42:25.233Z,59.10
2019-04-23T04:45:14.393Z,59.10
2019-04-23T04:47:42.237Z,58.90
2019-04-23T04:50:10.359Z,59.20
2019-04-23T04:53:00.720Z,59.00
2019-04-23T04:55:19.495Z,59.10
2019-04-23T05:05:53.013Z,58.70
2019-04-23T05:07:54.336Z,58.80
2019-04-23T05:10:32.433Z,59.00
2019-04-23T05:13:13.834Z,59.30
2019-04-23T05:15:23.743Z,59.20
2019-04-23T05:20:50.627Z,59.20
2019-04-23T05:25:45.033Z,59.40
2019-04-23T05:30:52.183Z,59.30
2019-04-23T05:33:22.368Z,59.10
2019-04-23T05:36:22.836Z,59.00
2019-04-23T05:38:51.130Z,58.30
2019-04-23T05:41:22.220Z,58.50
2019-04-23T05:43:54.738Z,58.90
2019-04-23T05:46:27.763Z,58.50
2019-04-23T05:53:58.306Z,59.10
2019-04-23T05:56:36.885Z,59.10
2019-04-23T05:59:05.504Z,59.00
2019-04-23T06:04:17.550Z,59.50
2019-04-23T06:07:11.633Z,59.50
2019-04-23T06:09:14.118Z,59.70
2019-04-23T06:11:52.635Z,60.10
2019-04-23T06:14:23.689Z,59.40
2019-04-23T06:17:01.979Z,59.90
2019-04-23T06:24:41.845Z,59.00
2019-04-23T06:27:01.714Z,59.00
2019-04-23T06:29:32.194Z,59.60
2019-04-23T06:31:58.535Z,59.40
2019-04-23T06:34:41.638Z,59.90
2019-04-23T06:37:09.819Z,59.30
2019-04-23T06:39:42.643Z,59.30
2019-04-23T06:42:14.469Z,59.00
2019-04-23T06:47:20.096Z,58.70
2019-04-23T06:49:55.928Z,59.00
2019-04-23T06:52:41.153Z,58.40
2019-04-23T06:55:06.802Z,58.60
2019-04-23T06:57:25.824Z,58.40
2019-04-23T07:00:08.371Z,58.60
2019-04-23T07:02:39.152Z,58.90
2019-04-23T07:07:52.831Z,58.70
2019-04-23T07:10:18.661Z,59.10
2019-04-23T07:12:47.111Z,58.40
2019-04-23T07:15:33.836Z,59.70
2019-04-23T07:17:47.694Z,58.30
2019-04-23T07:20:27.328Z,59.00
2019-04-23T07:23:04.971Z,58.50
2019-04-23T07:25:48.517Z,58.70
2019-04-23T07:28:06.478Z,57.40
2019-04-23T07:30:35.417Z,57.80
2019-04-23T07:33:11.278Z,57.40
2019-04-23T07:35:45.555Z,57.30
2019-04-23T07:38:48.154Z,58.20
2019-04-23T07:41:24.907Z,57.40
2019-04-23T07:44:14.266Z,57.10
2019-04-23T07:47:15.780Z,56.80
2019-04-23T07:52:12.954Z,57.50
2019-04-23T07:54:48.791Z,57.30
2019-04-23T07:57:15.455Z,56.70
2019-04-23T07:59:48.599Z,57.00
2019-04-23T08:02:24.208Z,56.90
2019-04-23T08:05:04.742Z,57.00
2019-04-23T08:07:19.933Z,57.00
2019-04-23T08:10:10.162Z,55.90
2019-04-23T08:12:48.102Z,56.30
2019-04-23T08:15:14.991Z,55.80
2019-04-23T08:17:43.454Z,55.80
2019-04-23T08:20:24.708Z,55.50
2019-04-23T08:22:57.123Z,54.50
2019-04-23T08:25:52.472Z,54.80
2019-04-23T08:28:23.025Z,54.60
2019-04-23T08:30:45.341Z,55.00
2019-04-23T08:33:20.599Z,53.30
2019-04-23T08:35:59.292Z,53.00
2019-04-23T08:38:29.412Z,53.50
2019-04-23T08:41:13.087Z,53.30
2019-04-23T08:43:40.744Z,52.80
2019-04-23T08:46:36.812Z,52.90
2019-04-23T08:49:04.256Z,53.00
2019-04-23T08:51:44.087Z,52.30
2019-04-23T08:54:11.769Z,51.40
2019-04-23T08:56:41.504Z,50.90
2019-04-23T08:59:22.038Z,49.50
2019-04-23T09:01:52.828Z,50.20
2019-04-23T09:04:09.791Z,49.10
2019-04-23T09:06:45.308Z,49.80
2019-04-23T09:09:20.025Z,48.50
2019-04-23T09:14:08.897Z,49.90
2019-04-23T09:16:58.206Z,51.40
2019-04-23T09:19:53.349Z,49.10
2019-04-23T09:22:10.967Z,50.70
2019-04-23T09:24:38.278Z,53.20
2019-04-23T09:27:05.571Z,49.00
2019-04-23T09:29:45.700Z,50.40
2019-04-23T09:32:28.336Z,50.90
2019-04-23T09:38:11.588Z,49.30
2019-04-23T09:48:01.850Z,49.10
2019-04-23T09:51:17.852Z,49.00
2019-04-23T09:54:12.819Z,46.10
2019-04-23T09:57:27.679Z,47.70
2019-04-23T10:00:36.162Z,46.90
2019-04-23T10:03:47.806Z,48.10
2019-04-23T10:10:44.896Z,46.60
2019-04-23T10:13:42.794Z,48.20
2019-04-23T10:17:00.025Z,48.30
2019-04-23T10:20:10.995Z,49.10
2019-04-23T10:23:45.113Z,46.80
2019-04-23T10:30:21.703Z,51.40
2019-04-23T10:45:28.756Z,48.50
2019-04-23T10:56:25.399Z,46.80
2019-04-23T10:59:16.917Z,46.00
2019-04-23T11:05:35.932Z,44.50
2019-04-23T11:12:04.088Z,48.30
2019-04-23T11:19:04.360Z,43.10
2019-04-23T11:21:54.750Z,49.00
2019-04-23T11:24:12.889Z,45.60
2019-04-23T11:26:29.881Z,49.40
2019-04-23T11:29:16.835Z,45.20
2019-04-23T11:31:48.766Z,44.00
2019-04-23T11:34:19.983Z,46.50
2019-04-23T11:39:16.718Z,43.20
2019-04-23T11:41:53.062Z,42.90
2019-04-23T11:44:31.895Z,43.10
2019-04-23T11:47:23.125Z,43.10
2019-04-23T11:49:44.941Z,44.80
2019-04-23T11:52:08.399Z,44.70
2019-04-23T11:54:30.687Z,43.20
2019-04-23T11:57:22.171Z,41.50
2019-04-23T12:02:35.148Z,44.70
2019-04-23T12:05:26.568Z,43.80
2019-04-23T12:08:01.517Z,43.50
2019-04-23T12:13:12.339Z,43.50
2019-04-23T12:15:39.512Z,39.10
2019-04-23T12:18:18.960Z,41.10
2019-04-23T12:20:48.759Z,42.00
2019-04-23T12:26:03.589Z,40.10
2019-04-23T12:28:40.573Z,39.30
2019-04-23T12:31:11.669Z,39.90
2019-04-23T12:33:43.993Z,39.20
2019-04-23T12:37:06.407Z,38.30
2019-04-23T12:40:51.252Z,38.70
2019-04-23T12:44:33.301Z,38.80
2019-04-23T12:50:50.064Z,37.20
2019-04-23T12:53:57.578Z,37.20
2019-04-23T13:01:25.530Z,38.50
2019-04-23T13:04:42.199Z,38.60
2019-04-23T13:07:52.197Z,40.10
2019-04-23T13:14:51.044Z,38.70
2019-04-23T13:31:58.231Z,41.20
2019-04-23T13:34:51.045Z,38.60
2019-04-23T13:37:26.257Z,38.70
2019-04-23T13:39:44.332Z,41.10
2019-04-23T13:42:33.443Z,38.60
2019-04-23T13:44:57.454Z,36.20
2019-04-23T13:47:38.489Z,37.30
2019-04-23T13:50:07.979Z,38.50
2019-04-23T13:53:02.106Z,35.20
2019-04-23T13:57:59.253Z,36.40
2019-04-23T14:00:07.038Z,36.90
2019-04-23T14:05:42.345Z,35.60
2019-04-23T14:08:20.467Z,37.90
2019-04-23T14:13:37.188Z,37.00
2019-04-23T14:16:40.470Z,35.40
2019-04-23T14:19:23.329Z,38.60
2019-04-23T14:23:07.936Z,37.10
2019-04-23T14:33:15.473Z,38.30
2019-04-23T14:39:58.267Z,36.10
2019-04-23T14:46:35.016Z,36.60
2019-04-23T14:48:52.114Z,37.30
2019-04-23T14:51:32.152Z,35.90
2019-04-23T14:53:48.381Z,36.30
2019-04-23T14:56:39.101Z,36.60
2019-04-23T14:59:09.557Z,38.30
2019-04-23T15:01:36.287Z,38.00
2019-04-23T15:03:57.879Z,40.10
2019-04-23T15:06:35.817Z,41.80
2019-04-23T15:09:19.695Z,41.20
2019-04-23T15:11:44.289Z,41.20
2019-04-23T15:14:09.989Z,40.80
2019-04-23T15:16:44.911Z,43.40
2019-04-23T15:24:58.052Z,39.10
2019-04-23T15:26:58.870Z,41.60
2019-04-23T15:29:28.114Z,41.90
2019-04-23T15:32:19.884Z,43.20
2019-04-23T15:34:39.205Z,43.00
2019-04-23T15:39:56.706Z,43.90
2019-04-23T15:45:14.006Z,43.50
2019-04-23T15:50:51.583Z,44.50
2019-04-23T15:53:07.483Z,46.40
2019-04-23T16:01:37.062Z,46.00
2019-04-23T16:03:43.958Z,45.50
2019-04-23T16:06:19.008Z,46.10
2019-04-23T16:09:06.246Z,46.20
2019-04-23T16:11:47.041Z,47.70
2019-04-23T16:14:28.692Z,46.60
2019-04-23T16:16:51.538Z,47.50
2019-04-23T16:19:57.856Z,47.30
2019-04-23T16:22:20.307Z,47.30
2019-04-23T16:25:03.368Z,47.50
2019-04-23T16:27:20.057Z,47.70
2019-04-23T16:30:10.827Z,48.00
2019-04-23T16:32:57.727Z,48.00
2019-04-23T16:36:05.910Z,47.90
2019-04-23T16:41:07.707Z,49.60
2019-04-23T16:43:38.218Z,48.20
2019-04-23T16:48:47.832Z,48.90
2019-04-23T16:51:29.676Z,48.80
2019-04-23T16:53:44.275Z,50.50
2019-04-23T16:59:00.037Z,50.90
2019-04-23T17:01:23.191Z,48.80
2019-04-23T17:03:56.395Z,50.60
2019-04-23T17:06:44.323Z,50.60
2019-04-23T17:09:03.584Z,50.80
2019-04-23T17:14:09.511Z,49.50
2019-04-23T17:17:25.425Z,50.80
2019-04-23T17:21:04.743Z,52.10
2019-04-23T17:27:42.466Z,51.00
2019-04-23T17:37:33.238Z,51.60
2019-04-23T17:45:16.619Z,50.00
2019-04-23T17:48:07.133Z,50.20
2019-04-23T17:50:53.247Z,51.40
2019-04-23T17:56:37.264Z,51.30
2019-04-23T17:58:58.639Z,51.10
2019-04-23T18:01:44.619Z,51.60
2019-04-23T18:07:28.373Z,51.10
2019-04-23T18:10:09.811Z,52.50
2019-04-23T18:12:44.087Z,51.60
2019-04-23T18:15:35.155Z,52.80
2019-04-23T18:18:02.147Z,51.90
2019-04-23T18:21:44.045Z,52.50
2019-04-23T18:35:51.202Z,52.90
2019-04-23T18:46:22.956Z,54.10
2019-04-23T18:57:18.350Z,54.60
2019-04-23T19:16:01.658Z,54.80
2019-04-23T19:19:29.616Z,54.60
2019-04-23T19:23:13.559Z,54.20
2019-04-23T19:30:28.104Z,53.00
2019-04-23T19:41:25.585Z,50.70
2019-04-23T19:55:11.444Z,53.20
2019-04-23T19:58:05.003Z,52.20
2019-04-23T20:01:03.713Z,52.10
2019-04-23T20:03:37.078Z,51.70
2019-04-23T20:06:14.993Z,51.20
2019-04-23T20:11:34.913Z,50.80
2019-04-23T20:16:40.111Z,49.90
2019-04-23T20:19:04.822Z,50.70
2019-04-23T20:21:45.108Z,50.80
2019-04-23T20:24:20.841Z,51.30
2019-04-23T20:26:42.057Z,51.70
2019-04-23T20:30:02.828Z,51.80
2019-04-23T20:35:15.886Z,52.50
2019-04-23T20:37:58.039Z,53.10
2019-04-23T20:40:11.423Z,53.30
2019-04-23T20:42:34.667Z,53.00
2019-04-23T20:45:17.004Z,52.50
2019-04-23T20:47:45.438Z,52.10
2019-04-23T20:50:10.232Z,51.40
2019-04-23T20:52:46.846Z,52.80
2019-04-23T20:55:49.475Z,52.60
2019-04-23T20:58:09.440Z,52.20
2019-04-23T21:01:34.656Z,51.60
2019-04-23T21:03:56.945Z,52.60
2019-04-23T21:06:28.371Z,51.60
2019-04-23T21:09:17.454Z,50.80
2019-04-23T21:11:43.826Z,50.30
2019-04-23T21:14:24.076Z,50.30
2019-04-23T21:16:50.977Z,50.70
2019-04-23T21:19:10.645Z,50.30
2019-04-23T21:22:06.013Z,50.30
2019-04-23T21:24:36.533Z,51.20
2019-04-23T21:27:43.211Z,51.40
2019-04-23T21:32:42.196Z,51.70
2019-04-23T21:35:16.775Z,51.60
2019-04-23T21:37:54.022Z,51.80
2019-04-23T21:43:20.646Z,51.90
2019-04-23T21:45:52.759Z,52.90
2019-04-23T21:48:16.895Z,52.50
2019-04-23T21:50:49.643Z,52.50
2019-04-23T21:53:29.119Z,53.00
2019-04-23T21:56:08.937Z,52.90
2019-04-23T21:58:42.269Z,53.30
2019-04-23T22:01:29.832Z,53.70
2019-04-23T22:06:40.828Z,53.60
2019-04-23T22:11:59.714Z,52.80
2019-04-23T22:14:09.932Z,53.70
2019-04-23T22:16:41.053Z,53.40
2019-04-23T22:19:15.043Z,52.90
2019-04-23T22:21:47.244Z,53.60
2019-04-23T22:29:18.489Z,52.50
2019-04-23T22:31:51.767Z,52.80
2019-04-23T22:34:31.270Z,52.20
2019-04-23T22:37:07.926Z,52.40
2019-04-23T22:39:36.298Z,52.50
2019-04-23T22:44:48.071Z,54.40
2019-04-23T22:47:02.363Z,52.40
2019-04-23T22:50:02.178Z,53.00
2019-04-23T22:52:31.479Z,53.20
2019-04-23T23:00:14.386Z,54.80
2019-04-23T23:03:11.729Z,55.20
2019-04-23T23:05:50.828Z,55.80
2019-04-23T23:08:10.818Z,55.20
2019-04-23T23:10:44.213Z,55.30
2019-04-23T23:13:12.125Z,55.40
2019-04-23T23:15:49.284Z,55.60
2019-04-23T23:18:19.756Z,55.30
2019-04-23T23:20:55.852Z,54.90
2019-04-23T23:25:54.193Z,55.60
2019-04-23T23:28:31.096Z,56.20
2019-04-23T23:31:08.508Z,56.00
2019-04-23T23:33:31.968Z,55.60
2019-04-23T23:36:08.464Z,55.70
2019-04-23T23:38:44.677Z,56.60
2019-04-23T23:41:20.730Z,56.10
2019-04-23T23:43:41.917Z,55.80
2019-04-23T23:46:37.858Z,56.40
2019-04-23T23:49:02.872Z,56.80
2019-04-23T23:56:53.654Z,57.20
2019-04-23T23:59:23.040Z,57.40
